Yale, South Dakota
Current Conditions -  °F | °C
As of 10:17 AM on Sunday 21 Dec 2014 (Local Time) from KHON Reporting Station
Haze Haze  
Wind Chill: 20°   Ceiling: 200
Heat Index: 30°   Visibility: 1.5mi
Dew Point: 30°   Wind: 14mph
Humidity: 100%   Direction: 170°S
Pressure: 29.67"   Gusts: NA
Location:  44.43°N, 97.99°W
Report Text: KHON 211617Z AUTO 17012KT 1 1/2SM BR OVC002 M01/M01 A2967 RMK AO2 T10111011
Loading
Personal Weather Stations






























Interactive Weather Map New forecast layout! Learn more

10-Day Weather Forecast

Advertisements
Track Severe Weather on mobile